createdAt,value
2023-05-17T00:01:12.394Z,6.30
2023-05-17T00:03:39.363Z,6.30
2023-05-17T00:06:06.265Z,6.30
2023-05-17T00:08:33.392Z,6.30
2023-05-17T00:11:00.321Z,6.30
2023-05-17T00:13:27.365Z,6.20
2023-05-17T00:15:54.313Z,6.20
2023-05-17T00:18:21.359Z,6.10
2023-05-17T00:20:48.297Z,6.10
2023-05-17T00:23:15.347Z,6.10
2023-05-17T00:25:42.361Z,6.00
2023-05-17T00:28:09.236Z,5.90
2023-05-17T00:30:36.199Z,5.90
2023-05-17T00:33:04.310Z,5.80
2023-05-17T00:35:31.368Z,5.70
2023-05-17T00:37:58.416Z,5.60
2023-05-17T00:40:25.791Z,5.50
2023-05-17T00:42:52.656Z,5.40
2023-05-17T00:45:19.667Z,5.40
2023-05-17T00:47:46.683Z,5.40
2023-05-17T00:50:14.059Z,5.30
2023-05-17T00:52:41.168Z,5.30
2023-05-17T00:55:08.465Z,5.20
2023-05-17T00:57:35.766Z,5.20
2023-05-17T01:00:03.907Z,5.20
2023-05-17T01:02:31.125Z,5.20
2023-05-17T01:04:58.399Z,5.10
2023-05-17T01:07:25.404Z,5.00
2023-05-17T01:09:52.770Z,4.90
2023-05-17T01:12:28.874Z,4.90
2023-05-17T01:15:15.405Z,4.90
2023-05-17T01:18:08.220Z,4.80
2023-05-17T01:20:42.041Z,4.80
2023-05-17T01:23:48.315Z,4.80
2023-05-17T01:26:41.590Z,4.80
2023-05-17T01:29:10.027Z,4.80
2023-05-17T01:31:38.975Z,4.70
2023-05-17T01:34:09.784Z,4.80
2023-05-17T01:36:37.403Z,4.70
2023-05-17T01:39:04.463Z,4.80
2023-05-17T01:41:40.026Z,4.70
2023-05-17T01:44:39.175Z,4.80
2023-05-17T01:47:16.477Z,4.70
2023-05-17T01:49:46.948Z,4.80
2023-05-17T01:52:29.318Z,4.70
2023-05-17T01:55:09.137Z,4.80
2023-05-17T01:57:37.428Z,4.80
2023-05-17T02:00:09.383Z,4.80
2023-05-17T02:02:37.085Z,4.70
2023-05-17T02:05:04.359Z,4.80
2023-05-17T02:07:31.454Z,4.80
2023-05-17T02:09:58.583Z,4.70
2023-05-17T02:12:25.639Z,4.80
2023-05-17T02:14:52.694Z,4.80
2023-05-17T02:17:19.671Z,4.70
2023-05-17T02:19:46.710Z,4.80
2023-05-17T02:22:13.791Z,4.80
2023-05-17T02:24:40.977Z,4.70
2023-05-17T02:27:08.181Z,4.70
2023-05-17T02:29:35.152Z,4.70
2023-05-17T02:32:02.216Z,4.70
2023-05-17T02:34:29.184Z,4.70
2023-05-17T02:36:56.152Z,4.70
2023-05-17T02:39:23.780Z,4.70
2023-05-17T02:41:50.755Z,4.70
2023-05-17T02:44:17.673Z,4.70
2023-05-17T02:46:44.675Z,4.70
2023-05-17T02:49:11.731Z,4.60
2023-05-17T02:51:38.743Z,4.60
2023-05-17T02:54:05.714Z,4.60
2023-05-17T02:56:33.087Z,4.60
2023-05-17T02:59:01.407Z,4.60
2023-05-17T03:01:28.572Z,4.60
2023-05-17T03:03:55.743Z,4.60
2023-05-17T03:06:22.776Z,4.60
2023-05-17T03:08:50.361Z,4.60
2023-05-17T03:11:17.288Z,4.60
2023-05-17T03:13:46.424Z,4.60
2023-05-17T03:16:13.494Z,4.60
2023-05-17T03:18:40.753Z,4.50
2023-05-17T03:21:07.891Z,4.50
2023-05-17T03:23:34.989Z,4.40
2023-05-17T03:26:02.035Z,4.40
2023-05-17T03:28:29.146Z,4.40
2023-05-17T03:30:56.344Z,4.40
2023-05-17T03:33:23.395Z,4.30
2023-05-17T03:35:50.444Z,4.30
2023-05-17T03:38:17.494Z,4.40
2023-05-17T03:40:44.383Z,4.40
2023-05-17T03:43:11.324Z,4.30
2023-05-17T03:45:38.305Z,4.30
2023-05-17T03:48:05.814Z,4.30
2023-05-17T03:50:32.964Z,4.30
2023-05-17T03:52:59.979Z,4.30
2023-05-17T03:55:27.334Z,4.20
2023-05-17T03:57:54.608Z,4.20
2023-05-17T04:00:22.135Z,4.20
2023-05-17T04:02:50.492Z,4.20
2023-05-17T04:05:18.277Z,4.20
2023-05-17T04:07:45.477Z,4.20
2023-05-17T04:10:12.448Z,4.20
2023-05-17T04:12:39.542Z,4.30
2023-05-17T04:15:07.196Z,4.20
2023-05-17T04:17:34.272Z,4.10
2023-05-17T04:20:01.746Z,4.10
2023-05-17T04:22:31.624Z,4.10
2023-05-17T04:24:58.729Z,4.10
2023-05-17T04:27:26.039Z,4.10
2023-05-17T04:29:52.981Z,4.10
2023-05-17T04:32:20.092Z,4.10
2023-05-17T04:34:48.159Z,4.10
2023-05-17T04:37:16.275Z,4.10
2023-05-17T04:39:43.193Z,4.10
2023-05-17T04:42:10.324Z,4.10
2023-05-17T04:44:37.352Z,4.20
2023-05-17T04:47:04.577Z,4.20
2023-05-17T04:49:33.352Z,4.20
2023-05-17T04:52:00.507Z,4.20
2023-05-17T04:54:27.528Z,4.20
2023-05-17T04:56:54.841Z,4.20
2023-05-17T04:59:21.850Z,4.30
2023-05-17T05:01:48.990Z,4.40
2023-05-17T05:04:16.083Z,4.50
2023-05-17T05:06:43.135Z,4.50
2023-05-17T05:09:10.091Z,4.60
2023-05-17T05:11:37.171Z,4.60
2023-05-17T05:14:04.206Z,4.70
2023-05-17T05:16:31.527Z,4.70
2023-05-17T05:18:58.701Z,4.90
2023-05-17T05:21:25.909Z,4.80
2023-05-17T05:23:52.856Z,4.80
2023-05-17T05:26:19.896Z,4.90
2023-05-17T05:28:46.885Z,4.90
2023-05-17T05:31:13.946Z,4.90
2023-05-17T05:33:40.967Z,4.90
2023-05-17T05:36:08.227Z,5.00
2023-05-17T05:38:35.315Z,5.10
2023-05-17T05:41:02.321Z,5.20
2023-05-17T05:43:29.466Z,5.20
2023-05-17T05:45:57.131Z,5.30
2023-05-17T05:48:24.390Z,5.40
2023-05-17T05:50:51.801Z,5.50
2023-05-17T05:53:19.937Z,5.70
2023-05-17T05:55:47.257Z,5.90
2023-05-17T05:58:14.417Z,6.10
2023-05-17T06:00:41.735Z,6.40
2023-05-17T06:03:09.730Z,8.20
2023-05-17T06:05:36.791Z,6.50
2023-05-17T06:08:04.210Z,6.60
2023-05-17T06:10:31.309Z,6.60
2023-05-17T06:12:58.658Z,6.90
2023-05-17T06:15:27.451Z,7.10
2023-05-17T06:17:55.656Z,7.30
2023-05-17T06:20:22.971Z,7.50
2023-05-17T06:22:50.132Z,7.40
2023-05-17T06:25:17.172Z,7.50
2023-05-17T06:27:44.131Z,7.50
2023-05-17T06:30:15.789Z,7.40
2023-05-17T06:32:43.296Z,7.40
2023-05-17T06:35:11.666Z,8.20
2023-05-17T06:37:38.652Z,7.50
2023-05-17T06:40:16.092Z,7.80
2023-05-17T06:42:44.156Z,8.00
2023-05-17T06:45:12.075Z,7.90
2023-05-17T06:47:39.770Z,7.80
2023-05-17T06:50:08.840Z,7.80
2023-05-17T06:52:36.320Z,8.00
2023-05-17T06:55:03.550Z,8.10
2023-05-17T06:57:33.696Z,8.30
2023-05-17T07:00:01.790Z,8.50
2023-05-17T07:02:33.692Z,8.90
2023-05-17T07:05:01.548Z,9.30
2023-05-17T07:07:28.752Z,9.30
2023-05-17T07:09:55.860Z,9.10
2023-05-17T07:12:22.811Z,8.40
2023-05-17T07:14:49.927Z,8.20
2023-05-17T07:17:17.071Z,8.00
2023-05-17T07:19:44.162Z,8.20
2023-05-17T07:22:12.623Z,8.50
2023-05-17T07:24:39.670Z,8.80
2023-05-17T07:27:06.699Z,8.90
2023-05-17T07:29:33.884Z,9.10
2023-05-17T07:32:00.865Z,9.50
2023-05-17T07:34:27.788Z,9.70
2023-05-17T07:36:54.875Z,9.80
2023-05-17T07:39:21.872Z,9.90
2023-05-17T07:41:48.891Z,9.80
2023-05-17T07:44:16.023Z,9.70
2023-05-17T07:46:43.042Z,9.50
2023-05-17T07:49:13.060Z,9.50
2023-05-17T07:51:40.263Z,9.60
2023-05-17T07:54:07.282Z,9.40
2023-05-17T07:56:34.395Z,9.40
2023-05-17T07:59:01.531Z,9.30
2023-05-17T08:01:28.579Z,9.20
2023-05-17T08:03:55.841Z,9.20
2023-05-17T08:06:22.910Z,9.40
2023-05-17T08:08:50.176Z,9.60
2023-05-17T08:11:18.234Z,9.50
2023-05-17T08:13:45.680Z,9.60
2023-05-17T08:16:14.673Z,9.90
2023-05-17T08:18:45.564Z,10.20
2023-05-17T08:21:12.636Z,9.90
2023-05-17T08:23:40.842Z,9.90
2023-05-17T08:26:07.858Z,10.00
2023-05-17T08:28:34.981Z,10.10
2023-05-17T08:31:02.125Z,10.10
2023-05-17T08:33:29.193Z,10.20
2023-05-17T08:35:57.898Z,10.00
2023-05-17T08:38:24.955Z,10.00
2023-05-17T08:40:56.398Z,9.70
2023-05-17T08:43:26.823Z,9.60
2023-05-17T08:45:57.785Z,9.80
2023-05-17T08:48:31.320Z,10.00
2023-05-17T08:51:00.257Z,10.30
2023-05-17T08:53:28.667Z,10.50
2023-05-17T08:56:01.193Z,10.60
2023-05-17T08:58:44.357Z,10.80
2023-05-17T09:01:24.284Z,10.90
2023-05-17T09:03:52.661Z,11.10
2023-05-17T09:06:23.617Z,11.10
2023-05-17T09:08:53.002Z,10.80
2023-05-17T09:11:28.333Z,10.60
2023-05-17T09:14:03.862Z,10.50
2023-05-17T09:16:33.445Z,10.60
2023-05-17T09:19:01.344Z,10.60
2023-05-17T09:21:31.671Z,10.50
2023-05-17T09:24:07.687Z,10.40
2023-05-17T09:26:53.413Z,10.40
2023-05-17T09:29:20.721Z,10.10
2023-05-17T09:31:47.870Z,10.10
2023-05-17T09:34:19.722Z,9.90
2023-05-17T09:36:46.949Z,10.10
2023-05-17T09:39:15.206Z,10.50
2023-05-17T09:41:43.440Z,10.60
2023-05-17T09:44:11.767Z,10.60
2023-05-17T09:46:46.354Z,10.50
2023-05-17T09:49:14.351Z,10.70
2023-05-17T09:51:46.875Z,10.90
2023-05-17T09:54:14.247Z,11.10
2023-05-17T09:56:42.121Z,11.10
2023-05-17T09:59:15.266Z,11.30
2023-05-17T10:01:43.329Z,11.50
2023-05-17T10:04:11.638Z,11.50
2023-05-17T10:06:50.771Z,11.60
2023-05-17T10:09:22.186Z,11.60
2023-05-17T10:11:52.542Z,11.20
2023-05-17T10:14:26.224Z,11.10
2023-05-17T10:16:54.211Z,11.20
2023-05-17T10:19:21.842Z,11.10
2023-05-17T10:21:51.278Z,11.10
2023-05-17T10:24:21.461Z,10.90
2023-05-17T10:26:50.612Z,10.50
2023-05-17T10:29:21.050Z,10.30
2023-05-17T10:31:51.244Z,10.30
2023-05-17T10:34:19.860Z,10.30
2023-05-17T10:36:49.135Z,10.40
2023-05-17T10:39:16.793Z,10.40
2023-05-17T10:41:46.660Z,10.50
2023-05-17T10:44:16.103Z,10.70
2023-05-17T10:46:56.231Z,11.00
2023-05-17T10:49:29.508Z,11.50
2023-05-17T10:52:11.674Z,11.70
2023-05-17T10:54:42.603Z,11.60
2023-05-17T10:57:18.536Z,11.50
2023-05-17T11:00:04.025Z,11.30
2023-05-17T11:02:31.982Z,10.80
2023-05-17T11:05:00.634Z,10.80
2023-05-17T11:07:33.968Z,10.90
2023-05-17T11:10:10.789Z,10.80
2023-05-17T11:12:43.180Z,11.00
2023-05-17T11:15:17.668Z,10.80
2023-05-17T11:17:54.780Z,10.90
2023-05-17T11:20:28.301Z,10.80
2023-05-17T11:23:01.582Z,10.90
2023-05-17T11:25:38.924Z,11.10
2023-05-17T11:28:10.280Z,11.40
2023-05-17T11:30:43.521Z,11.70
2023-05-17T11:33:21.380Z,12.00
2023-05-17T11:35:56.944Z,12.30
2023-05-17T11:38:30.506Z,12.30
2023-05-17T11:40:57.921Z,12.00
2023-05-17T11:43:27.408Z,12.00
2023-05-17T11:45:57.667Z,12.00
2023-05-17T11:48:26.776Z,11.50
2023-05-17T11:50:57.094Z,11.40
2023-05-17T11:53:28.461Z,11.40
2023-05-17T11:55:57.754Z,11.40
2023-05-17T11:58:25.979Z,11.20
2023-05-17T12:00:55.216Z,11.20
2023-05-17T12:03:26.960Z,11.20
2023-05-17T12:06:08.156Z,11.30
2023-05-17T12:08:36.906Z,11.30
2023-05-17T12:11:05.388Z,11.40
2023-05-17T12:13:36.948Z,11.70
2023-05-17T12:16:09.793Z,11.90
2023-05-17T12:18:59.562Z,12.10
2023-05-17T12:21:26.733Z,12.10
2023-05-17T12:23:54.033Z,11.90
2023-05-17T12:26:23.678Z,11.80
2023-05-17T12:28:56.372Z,11.90
2023-05-17T12:31:34.351Z,11.90
2023-05-17T12:34:04.932Z,11.80
2023-05-17T12:36:33.767Z,11.90
2023-05-17T12:39:01.622Z,11.90
2023-05-17T12:41:31.388Z,11.80
2023-05-17T12:44:13.481Z,11.90
2023-05-17T12:46:43.139Z,12.10
2023-05-17T12:49:14.275Z,12.20
2023-05-17T12:51:45.009Z,12.30
2023-05-17T12:54:26.164Z,12.30
2023-05-17T12:56:53.687Z,12.10
2023-05-17T12:59:21.542Z,11.80
2023-05-17T13:01:53.864Z,11.70
2023-05-17T13:04:28.097Z,11.60
2023-05-17T13:06:57.931Z,11.70
2023-05-17T13:09:28.068Z,11.90
2023-05-17T13:11:57.332Z,12.20
2023-05-17T13:14:40.775Z,12.20
2023-05-17T13:17:12.870Z,11.90
2023-05-17T13:19:40.260Z,11.50
2023-05-17T13:22:08.395Z,11.20
2023-05-17T13:24:37.434Z,11.20
2023-05-17T13:27:05.789Z,11.40
2023-05-17T13:29:39.490Z,11.60
2023-05-17T13:32:10.244Z,11.80
2023-05-17T13:34:39.128Z,11.90
2023-05-17T13:37:08.831Z,11.80
2023-05-17T13:39:43.231Z,11.90
2023-05-17T13:42:12.609Z,12.10
2023-05-17T13:44:40.226Z,12.40
2023-05-17T13:47:07.579Z,12.60
2023-05-17T13:49:34.896Z,12.60
2023-05-17T13:52:01.826Z,12.40
2023-05-17T13:54:28.766Z,12.10
2023-05-17T13:56:57.543Z,12.00
2023-05-17T13:59:26.227Z,12.10
2023-05-17T14:01:53.802Z,11.90
2023-05-17T14:04:21.934Z,12.00
2023-05-17T14:06:50.661Z,11.80
2023-05-17T14:09:20.392Z,11.70
2023-05-17T14:11:47.434Z,11.80
2023-05-17T14:14:14.436Z,12.00
2023-05-17T14:16:42.478Z,12.00
2023-05-17T14:19:09.533Z,11.90
2023-05-17T14:21:36.598Z,11.60
2023-05-17T14:24:03.711Z,11.70
2023-05-17T14:26:30.705Z,11.80
2023-05-17T14:28:57.684Z,11.90
2023-05-17T14:31:26.299Z,12.10
2023-05-17T14:33:53.313Z,12.10
2023-05-17T14:36:20.546Z,12.00
2023-05-17T14:38:47.644Z,11.80
2023-05-17T14:41:14.630Z,11.80
2023-05-17T14:43:41.621Z,11.70
2023-05-17T14:46:08.647Z,11.80
2023-05-17T14:48:35.984Z,11.90
2023-05-17T14:51:03.920Z,11.70
2023-05-17T14:53:51.507Z,11.40
2023-05-17T14:56:18.720Z,11.30
2023-05-17T14:58:47.424Z,11.30
2023-05-17T15:01:15.382Z,11.40
2023-05-17T15:03:42.519Z,11.60
2023-05-17T15:06:11.812Z,11.60
2023-05-17T15:08:39.416Z,11.50
2023-05-17T15:11:06.800Z,11.50
2023-05-17T15:13:33.753Z,11.60
2023-05-17T15:16:02.813Z,11.80
2023-05-17T15:18:29.968Z,11.60
2023-05-17T15:20:56.942Z,11.80
2023-05-17T15:23:24.084Z,11.80
2023-05-17T15:25:51.348Z,11.90
2023-05-17T15:28:20.900Z,11.90
2023-05-17T15:30:48.912Z,12.00
2023-05-17T15:33:16.127Z,12.00
2023-05-17T15:35:44.568Z,12.20
2023-05-17T15:38:11.637Z,12.40
2023-05-17T15:40:38.770Z,12.30
2023-05-17T15:43:05.686Z,12.00
2023-05-17T15:45:33.147Z,11.80
2023-05-17T15:48:02.106Z,11.60
2023-05-17T15:50:29.350Z,11.60
2023-05-17T15:52:57.554Z,11.60
2023-05-17T15:55:24.823Z,11.60
2023-05-17T15:57:51.866Z,11.40
2023-05-17T16:00:21.253Z,11.40
2023-05-17T16:02:49.501Z,11.30
2023-05-17T16:05:17.100Z,11.30
2023-05-17T16:07:44.223Z,11.40
2023-05-17T16:10:12.318Z,11.50
2023-05-17T16:12:39.327Z,11.60
2023-05-17T16:15:06.778Z,11.80
2023-05-17T16:17:33.919Z,12.10
2023-05-17T16:20:01.629Z,11.60
2023-05-17T16:22:28.874Z,11.50
2023-05-17T16:24:55.937Z,11.40
2023-05-17T16:27:22.924Z,11.30
2023-05-17T16:29:49.880Z,11.40
2023-05-17T16:32:16.965Z,11.40
2023-05-17T16:34:43.971Z,11.60
2023-05-17T16:37:14.145Z,11.60
2023-05-17T16:39:41.809Z,11.60
2023-05-17T16:42:08.811Z,11.50
2023-05-17T16:44:35.764Z,11.60
2023-05-17T16:47:03.812Z,11.50
2023-05-17T16:49:31.067Z,11.60
2023-05-17T16:51:58.079Z,11.50
2023-05-17T16:54:28.156Z,11.70
2023-05-17T16:56:55.844Z,11.80
2023-05-17T16:59:23.967Z,11.80
2023-05-17T17:01:51.391Z,11.60
2023-05-17T17:04:18.892Z,11.50
2023-05-17T17:06:48.058Z,11.50
2023-05-17T17:09:16.016Z,11.50
2023-05-17T17:11:44.466Z,11.30
2023-05-17T17:14:13.304Z,10.90
2023-05-17T17:16:42.516Z,11.10
2023-05-17T17:19:10.006Z,11.20
2023-05-17T17:21:37.188Z,11.20
2023-05-17T17:24:07.631Z,11.20
2023-05-17T17:26:35.560Z,11.30
2023-05-17T17:29:04.639Z,11.30
2023-05-17T17:31:34.552Z,11.40
2023-05-17T17:34:01.622Z,11.40
2023-05-17T17:36:28.815Z,11.40
2023-05-17T17:38:56.070Z,11.40
2023-05-17T17:41:23.379Z,11.40
2023-05-17T17:43:50.433Z,11.30
2023-05-17T17:46:17.379Z,11.30
2023-05-17T17:48:44.601Z,11.20
2023-05-17T17:51:11.786Z,11.00
2023-05-17T17:53:41.488Z,10.80
2023-05-17T17:56:09.701Z,10.70
2023-05-17T17:58:37.129Z,10.70
2023-05-17T18:01:04.266Z,10.50
2023-05-17T18:03:31.490Z,10.40
2023-05-17T18:06:01.163Z,10.30
2023-05-17T18:08:28.160Z,10.30
2023-05-17T18:10:55.170Z,10.20
2023-05-17T18:13:24.284Z,10.20
2023-05-17T18:15:52.525Z,10.10
2023-05-17T18:18:19.647Z,10.00
2023-05-17T18:20:46.911Z,9.90
2023-05-17T18:23:13.866Z,9.70
2023-05-17T18:25:42.913Z,9.70
2023-05-17T18:28:11.053Z,9.60
2023-05-17T18:30:41.526Z,9.60
2023-05-17T18:33:08.709Z,9.60
2023-05-17T18:35:36.042Z,9.70
2023-05-17T18:38:03.056Z,9.60
2023-05-17T18:40:30.401Z,9.60
2023-05-17T18:42:57.805Z,9.40
2023-05-17T18:45:24.867Z,9.30
2023-05-17T18:47:51.827Z,9.20
2023-05-17T18:50:19.011Z,9.10
2023-05-17T18:52:46.348Z,9.00
2023-05-17T18:55:13.416Z,8.90
2023-05-17T18:57:42.506Z,8.80
2023-05-17T19:00:11.048Z,8.80
2023-05-17T19:02:38.247Z,8.80
2023-05-17T19:05:05.583Z,8.80
2023-05-17T19:07:32.889Z,8.80
2023-05-17T19:10:00.909Z,8.70
2023-05-17T19:12:28.041Z,8.70
2023-05-17T19:14:55.201Z,8.70
2023-05-17T19:17:22.911Z,8.70
2023-05-17T19:19:50.143Z,8.60
2023-05-17T19:22:17.199Z,8.50
2023-05-17T19:24:44.316Z,8.50
2023-05-17T19:27:12.007Z,8.30
2023-05-17T19:29:38.948Z,8.30
2023-05-17T19:32:06.310Z,8.20
2023-05-17T19:34:33.339Z,8.20
2023-05-17T19:37:00.347Z,8.20
2023-05-17T19:39:27.459Z,8.10
2023-05-17T19:41:54.728Z,8.00
2023-05-17T19:44:21.835Z,8.00
2023-05-17T19:46:48.887Z,7.90
2023-05-17T19:49:16.583Z,7.90
2023-05-17T19:51:43.830Z,7.80
2023-05-17T19:54:10.980Z,7.80
2023-05-17T19:56:38.190Z,7.80
2023-05-17T19:59:05.361Z,7.80
2023-05-17T20:01:32.499Z,7.80
2023-05-17T20:03:59.828Z,7.80
2023-05-17T20:06:26.875Z,7.70
2023-05-17T20:08:53.733Z,7.70
2023-05-17T20:11:21.474Z,7.70
2023-05-17T20:13:48.604Z,7.60
2023-05-17T20:16:15.712Z,7.60
2023-05-17T20:18:43.815Z,7.50
2023-05-17T20:21:21.759Z,7.50
2023-05-17T20:23:48.817Z,7.40
2023-05-17T20:26:25.634Z,7.30
2023-05-17T20:28:53.514Z,7.30
2023-05-17T20:31:20.585Z,7.30
2023-05-17T20:33:47.655Z,7.20
2023-05-17T20:36:14.988Z,7.20
2023-05-17T20:38:42.950Z,7.20
2023-05-17T20:41:11.138Z,7.20
2023-05-17T20:43:38.167Z,7.10
2023-05-17T20:46:07.261Z,7.10
2023-05-17T20:48:34.652Z,7.10
2023-05-17T20:51:02.509Z,7.00
2023-05-17T20:53:30.753Z,7.00
2023-05-17T20:55:58.612Z,7.00
2023-05-17T20:58:25.665Z,6.90
2023-05-17T21:00:52.985Z,6.90
2023-05-17T21:03:20.003Z,6.90
2023-05-17T21:05:47.419Z,6.90
2023-05-17T21:08:14.503Z,6.90
2023-05-17T21:10:46.450Z,6.80
2023-05-17T21:13:14.708Z,6.80
2023-05-17T21:15:42.123Z,6.80
2023-05-17T21:18:12.221Z,6.80
2023-05-17T21:20:39.752Z,6.90
2023-05-17T21:23:06.732Z,6.90
2023-05-17T21:25:35.020Z,7.00
2023-05-17T21:28:02.105Z,6.90
2023-05-17T21:30:29.358Z,6.90
2023-05-17T21:32:56.669Z,7.00
2023-05-17T21:35:23.818Z,7.00
2023-05-17T21:37:51.029Z,7.00
2023-05-17T21:40:18.080Z,7.10
2023-05-17T21:42:46.659Z,7.10
2023-05-17T21:45:14.861Z,7.10
2023-05-17T21:47:41.916Z,7.10
2023-05-17T21:50:09.785Z,7.10
2023-05-17T21:52:37.210Z,7.10
2023-05-17T21:55:04.792Z,7.20
2023-05-17T21:57:36.043Z,7.10
2023-05-17T22:00:05.262Z,7.10
2023-05-17T22:02:34.869Z,7.10
2023-05-17T22:05:02.041Z,7.00
2023-05-17T22:07:29.019Z,7.00
2023-05-17T22:09:56.043Z,6.90
2023-05-17T22:12:25.710Z,6.80
2023-05-17T22:14:56.898Z,6.70
2023-05-17T22:17:34.984Z,8.20
2023-05-17T22:20:10.680Z,6.50
2023-05-17T22:22:38.140Z,6.40
2023-05-17T22:25:06.837Z,6.40
2023-05-17T22:27:33.930Z,6.40
2023-05-17T22:30:01.404Z,6.40
2023-05-17T22:32:28.470Z,6.30
2023-05-17T22:34:56.403Z,6.30
2023-05-17T22:37:25.668Z,6.30
2023-05-17T22:39:52.740Z,6.30
2023-05-17T22:42:20.930Z,6.20
2023-05-17T22:44:48.310Z,6.20
2023-05-17T22:47:15.416Z,6.20
2023-05-17T22:49:42.615Z,6.10
2023-05-17T22:52:12.899Z,6.10
2023-05-17T22:54:39.838Z,6.00
2023-05-17T22:57:06.780Z,5.90
2023-05-17T22:59:33.835Z,5.90
2023-05-17T23:02:02.415Z,5.90
2023-05-17T23:04:30.212Z,5.80
2023-05-17T23:07:02.537Z,5.80
2023-05-17T23:09:33.754Z,5.70
2023-05-17T23:12:05.681Z,5.70
2023-05-17T23:14:36.110Z,5.60
2023-05-17T23:17:04.612Z,5.60
2023-05-17T23:19:35.875Z,5.60
2023-05-17T23:22:03.243Z,5.60
2023-05-17T23:24:30.637Z,5.60
2023-05-17T23:26:57.835Z,5.60
2023-05-17T23:29:26.075Z,5.60
2023-05-17T23:31:53.750Z,5.60
2023-05-17T23:34:21.141Z,7.70
2023-05-17T23:36:48.248Z,5.40
2023-05-17T23:39:15.760Z,5.30
2023-05-17T23:41:43.155Z,5.30
2023-05-17T23:44:10.429Z,5.30
2023-05-17T23:46:37.878Z,5.30
2023-05-17T23:49:05.894Z,5.30
2023-05-17T23:51:34.953Z,5.30
2023-05-17T23:54:02.183Z,5.30
2023-05-17T23:56:29.195Z,5.30
2023-05-17T23:58:56.319Z,5.30
